Terminal Aerodrome Forecast
Issued by NWS

Home | Current Version | Previous Version | Graphics & Text | Print | Product List | Glossary On
Versions: 1 2 3 4 5 6 7 8 9 10 11 12 13 14 15 16
609
FTUS43 KMPX 010234 AAA
TAFRNH
TAF AMD
KRNH 010234Z 0103/0124 03013KT P6SM VCSH OVC011
      TEMPO 0103/0106 4SM -SN BR OVC008
     FM010800 36012G18KT 4SM -SN BR OVC010
      TEMPO 0108/0112 1 1/2SM -SN OVC015
     FM011400 35011KT P6SM OVC015
     FM012000 33010KT P6SM OVC025=

USA.gov is the U.S. government's official web portal to all federal, state and local government web resources and services.